createdAt,value
2018-02-07T00:02:13.777Z,-0.40
2018-02-07T00:04:40.394Z,-0.40
2018-02-07T00:07:07.007Z,-0.50
2018-02-07T00:09:33.703Z,-0.40
2018-02-07T00:12:01.778Z,-0.50
2018-02-07T00:14:28.389Z,-0.50
2018-02-07T00:16:55.718Z,-0.50
2018-02-07T00:19:22.409Z,-0.50
2018-02-07T00:21:48.998Z,-0.50
2018-02-07T00:24:15.633Z,-0.40
2018-02-07T00:26:42.273Z,-0.50
2018-02-07T00:29:08.839Z,-0.50
2018-02-07T00:31:35.431Z,-0.50
2018-02-07T00:34:02.013Z,-0.60
2018-02-07T00:36:28.647Z,-0.70
2018-02-07T00:38:56.150Z,-0.90
2018-02-07T00:41:22.761Z,-0.90
2018-02-07T00:43:49.334Z,-0.90
2018-02-07T00:46:15.934Z,-0.90
2018-02-07T00:48:42.535Z,-0.80
2018-02-07T00:51:09.864Z,-0.90
2018-02-07T00:53:37.192Z,-0.90
2018-02-07T00:56:03.789Z,-0.90
2018-02-07T00:58:31.106Z,-1.00
2018-02-07T01:00:57.696Z,-1.00
2018-02-07T01:03:24.262Z,-1.00
2018-02-07T01:05:51.477Z,-1.00
2018-02-07T01:08:18.073Z,-1.10
2018-02-07T01:10:44.770Z,-1.00
2018-02-07T01:13:11.341Z,-0.80
2018-02-07T01:15:37.936Z,-0.90
2018-02-07T01:18:04.497Z,-0.80
2018-02-07T01:20:31.082Z,-1.20
2018-02-07T01:22:58.386Z,-1.20
2018-02-07T01:25:24.999Z,-1.20
2018-02-07T01:27:51.575Z,-1.30
2018-02-07T01:30:18.129Z,-1.30
2018-02-07T01:32:45.466Z,-1.30
2018-02-07T01:35:12.093Z,-1.30
2018-02-07T01:37:38.687Z,-1.30
2018-02-07T01:40:05.288Z,-1.10
2018-02-07T01:42:31.857Z,-1.10
2018-02-07T01:44:58.461Z,-1.20
2018-02-07T01:47:25.809Z,-1.20
2018-02-07T01:49:52.389Z,-1.20
2018-02-07T01:52:19.014Z,-1.30
2018-02-07T01:54:46.301Z,-1.40
2018-02-07T01:57:12.902Z,-1.40
2018-02-07T01:59:40.213Z,-1.30
2018-02-07T02:02:06.794Z,-1.40
2018-02-07T02:04:33.465Z,-1.00
2018-02-07T02:07:00.070Z,-0.80
2018-02-07T02:09:27.179Z,-0.90
2018-02-07T02:11:54.534Z,-1.20
2018-02-07T02:14:21.849Z,-1.30
2018-02-07T02:16:48.438Z,-1.40
2018-02-07T02:19:15.025Z,-1.50
2018-02-07T02:21:41.597Z,-1.70
2018-02-07T02:24:08.173Z,-1.80
2018-02-07T02:26:34.737Z,-1.70
2018-02-07T02:29:01.318Z,-1.70
2018-02-07T02:31:27.884Z,-1.80
2018-02-07T02:33:55.226Z,-1.80
2018-02-07T02:36:38.893Z,-1.70
2018-02-07T02:39:05.473Z,-1.70
2018-02-07T02:41:32.036Z,-1.60
2018-02-07T02:43:58.625Z,-1.60
2018-02-07T02:46:25.212Z,-1.50
2018-02-07T02:48:52.577Z,-1.50
2018-02-07T02:51:19.878Z,-1.40
2018-02-07T02:53:46.466Z,-1.50
2018-02-07T02:56:13.034Z,-1.50
2018-02-07T02:58:39.613Z,-1.50
2018-02-07T03:01:06.192Z,-1.40
2018-02-07T03:03:32.766Z,-1.30
2018-02-07T03:05:59.354Z,-1.20
2018-02-07T03:08:26.018Z,-1.20
2018-02-07T03:10:52.590Z,-1.20
2018-02-07T03:13:19.217Z,-1.30
2018-02-07T03:15:46.529Z,-1.30
2018-02-07T03:18:13.277Z,-1.30
2018-02-07T03:20:39.865Z,-1.20
2018-02-07T03:23:06.472Z,-1.00
2018-02-07T03:25:33.032Z,-0.80
2018-02-07T03:28:00.362Z,-0.90
2018-02-07T03:30:26.915Z,-1.00
2018-02-07T03:32:53.453Z,-1.00
2018-02-07T03:35:20.790Z,-1.10
2018-02-07T03:37:47.342Z,-1.20
2018-02-07T03:40:14.700Z,-1.20
2018-02-07T03:42:41.238Z,-1.30
2018-02-07T03:45:07.812Z,-1.20
2018-02-07T03:47:34.365Z,-1.00
2018-02-07T03:50:00.974Z,-0.90
2018-02-07T03:52:27.530Z,-1.00
2018-02-07T03:54:54.117Z,-1.10
2018-02-07T03:57:20.762Z,-1.00
2018-02-07T03:59:47.341Z,-1.00
2018-02-07T04:02:13.917Z,-1.10
2018-02-07T04:04:40.485Z,-1.30
2018-02-07T04:07:07.789Z,-1.20
2018-02-07T04:09:34.373Z,-1.20
2018-02-07T04:12:00.930Z,-1.20
2018-02-07T04:14:27.677Z,-1.30
2018-02-07T04:16:54.239Z,-1.30
2018-02-07T04:19:20.783Z,-1.30
2018-02-07T04:21:47.354Z,-1.20
2018-02-07T04:24:14.668Z,-1.00
2018-02-07T04:26:41.238Z,-1.00
2018-02-07T04:29:07.809Z,-1.00
2018-02-07T04:31:34.370Z,-1.00
2018-02-07T04:34:00.933Z,-1.00
2018-02-07T04:36:27.504Z,-1.00
2018-02-07T04:38:54.051Z,-1.10
2018-02-07T04:41:20.614Z,-1.00
2018-02-07T04:43:47.174Z,-1.00
2018-02-07T04:46:14.578Z,-0.80
2018-02-07T04:48:41.137Z,-0.90
2018-02-07T04:51:07.701Z,-0.90
2018-02-07T04:53:34.281Z,-0.80
2018-02-07T04:56:00.862Z,-0.80
2018-02-07T04:58:27.435Z,-0.80
2018-02-07T05:00:53.994Z,-0.70
2018-02-07T05:03:20.579Z,-0.40
2018-02-07T05:05:47.904Z,-0.60
2018-02-07T05:08:14.476Z,-0.60
2018-02-07T05:10:41.813Z,-0.60
2018-02-07T05:13:08.951Z,-0.60
2018-02-07T05:15:35.497Z,-0.50
2018-02-07T05:18:02.109Z,-0.50
2018-02-07T05:20:28.687Z,-0.50
2018-02-07T05:22:55.265Z,-0.50
2018-02-07T05:25:21.816Z,-0.50
2018-02-07T05:27:48.357Z,-0.50
2018-02-07T05:30:14.933Z,-0.50
2018-02-07T05:32:41.503Z,-0.50
2018-02-07T05:35:08.130Z,-0.50
2018-02-07T05:37:34.774Z,-0.50
2018-02-07T05:40:01.698Z,-0.40
2018-02-07T05:42:29.015Z,-0.40
2018-02-07T05:44:55.598Z,-0.50
2018-02-07T05:47:22.906Z,-0.30
2018-02-07T05:49:49.613Z,-0.40
2018-02-07T05:52:16.167Z,-0.40
2018-02-07T05:54:42.757Z,-0.50
2018-02-07T05:57:10.089Z,-0.40
2018-02-07T05:59:36.739Z,-0.40
2018-02-07T06:02:04.097Z,-0.40
2018-02-07T06:04:31.417Z,-0.40
2018-02-07T06:06:57.981Z,-0.40
2018-02-07T06:09:25.365Z,-0.30
2018-02-07T06:11:51.966Z,-0.30
2018-02-07T06:14:18.525Z,-0.30
2018-02-07T06:16:45.139Z,-0.40
2018-02-07T06:19:11.710Z,-0.40
2018-02-07T06:21:38.274Z,-0.30
2018-02-07T06:24:04.867Z,-0.30
2018-02-07T06:26:31.435Z,-0.20
2018-02-07T06:28:58.049Z,-0.20
2018-02-07T06:31:24.661Z,-0.20
2018-02-07T06:33:51.286Z,-0.20
2018-02-07T06:36:17.890Z,-0.20
2018-02-07T06:38:44.453Z,-0.20
2018-02-07T06:41:11.035Z,-0.20
2018-02-07T06:43:37.585Z,-0.20
2018-02-07T06:46:04.186Z,-0.20
2018-02-07T06:48:30.782Z,-0.20
2018-02-07T06:50:57.363Z,-0.20
2018-02-07T06:53:24.703Z,-0.20
2018-02-07T06:55:52.047Z,-0.30
2018-02-07T06:58:18.675Z,-0.20
2018-02-07T07:00:45.270Z,-0.20
2018-02-07T07:03:11.867Z,-0.10
2018-02-07T07:05:38.425Z,-0.10
2018-02-07T07:08:05.142Z,-0.20
2018-02-07T07:10:31.710Z,-0.20
2018-02-07T07:12:58.360Z,-0.20
2018-02-07T07:15:25.482Z,-0.40
2018-02-07T07:17:52.785Z,-0.10
2018-02-07T07:20:19.346Z,-0.10
2018-02-07T07:22:45.927Z,-0.10
2018-02-07T07:25:12.497Z,-0.20
2018-02-07T07:27:39.156Z,-0.20
2018-02-07T07:30:05.734Z,-0.20
2018-02-07T07:32:32.274Z,-0.10
2018-02-07T07:34:58.916Z,-0.20
2018-02-07T07:37:26.181Z,-0.10
2018-02-07T07:39:52.788Z,-0.20
2018-02-07T07:42:19.382Z,-0.10
2018-02-07T07:44:45.977Z,-0.20
2018-02-07T07:47:12.533Z,-0.10
2018-02-07T07:49:40.099Z,-0.20
2018-02-07T07:52:06.654Z,-0.20
2018-02-07T07:54:33.221Z,-0.20
2018-02-07T07:57:00.622Z,0.00
2018-02-07T07:59:27.227Z,0.00
2018-02-07T08:01:53.778Z,0.00
2018-02-07T08:04:20.371Z,-0.10
2018-02-07T08:06:46.955Z,-0.10
2018-02-07T08:09:13.541Z,-0.20
2018-02-07T08:11:40.122Z,-0.10
2018-02-07T08:14:06.769Z,-0.10
2018-02-07T08:16:33.321Z,-0.10
2018-02-07T08:18:59.906Z,-0.10
2018-02-07T08:21:27.254Z,-0.20
2018-02-07T08:23:54.594Z,-0.20
2018-02-07T08:26:21.153Z,-0.20
2018-02-07T08:28:48.490Z,-0.20
2018-02-07T08:31:15.062Z,-0.20
2018-02-07T08:33:41.662Z,-0.10
2018-02-07T08:36:08.303Z,-0.20
2018-02-07T08:38:35.702Z,-0.20
2018-02-07T08:41:02.278Z,-0.20
2018-02-07T08:43:28.870Z,-0.30
2018-02-07T08:45:55.497Z,-0.30
2018-02-07T08:48:22.090Z,-0.20
2018-02-07T08:50:48.664Z,-0.30
2018-02-07T08:53:15.270Z,-0.30
2018-02-07T08:55:41.835Z,-0.30
2018-02-07T08:58:08.510Z,-0.20
2018-02-07T09:00:35.151Z,-0.20
2018-02-07T09:03:01.755Z,-0.10
2018-02-07T09:05:28.410Z,-0.20
2018-02-07T09:07:54.985Z,-0.10
2018-02-07T09:10:21.557Z,-0.20
2018-02-07T09:12:48.217Z,-0.10
2018-02-07T09:15:14.798Z,-0.10
2018-02-07T09:17:41.382Z,-0.10
2018-02-07T09:20:07.957Z,0.00
2018-02-07T09:22:34.627Z,-0.10
2018-02-07T09:25:01.936Z,-0.20
2018-02-07T09:27:28.530Z,-0.20
2018-02-07T09:29:55.129Z,-0.20
2018-02-07T09:32:21.682Z,-0.10
2018-02-07T09:34:49.051Z,-0.20
2018-02-07T09:37:15.613Z,-0.30
2018-02-07T09:39:42.194Z,-0.30
2018-02-07T09:42:08.778Z,-0.30
2018-02-07T09:44:35.394Z,-0.20
2018-02-07T09:47:02.106Z,-0.20
2018-02-07T09:49:28.699Z,-0.20
2018-02-07T09:51:55.261Z,-0.20
2018-02-07T09:54:22.077Z,-0.30
2018-02-07T09:56:48.690Z,0.00
2018-02-07T09:59:15.299Z,-0.10
2018-02-07T10:01:41.909Z,-0.10
2018-02-07T10:04:08.503Z,-0.20
2018-02-07T10:06:35.137Z,-0.10
2018-02-07T10:09:01.728Z,-0.10
2018-02-07T10:11:29.123Z,0.10
2018-02-07T10:13:56.486Z,0.20
2018-02-07T10:16:23.921Z,0.30
2018-02-07T10:18:51.249Z,0.30
2018-02-07T10:21:17.822Z,0.20
2018-02-07T10:23:45.113Z,0.20
2018-02-07T10:26:11.686Z,0.20
2018-02-07T10:28:38.289Z,0.00
2018-02-07T10:31:04.866Z,0.20
2018-02-07T10:33:31.429Z,0.20
2018-02-07T10:35:58.026Z,0.30
2018-02-07T10:38:24.587Z,0.40
2018-02-07T10:40:51.904Z,0.40
2018-02-07T10:43:18.543Z,0.40
2018-02-07T10:45:45.111Z,0.40
2018-02-07T10:48:11.665Z,0.40
2018-02-07T10:50:38.955Z,0.40
2018-02-07T10:53:05.582Z,0.50
2018-02-07T10:55:32.174Z,0.50
2018-02-07T10:57:58.754Z,0.70
2018-02-07T11:00:25.447Z,0.60
2018-02-07T11:02:52.753Z,0.50
2018-02-07T11:05:19.330Z,0.50
2018-02-07T11:07:45.915Z,0.60
2018-02-07T11:10:12.526Z,0.60
2018-02-07T11:12:39.086Z,0.70
2018-02-07T11:15:05.684Z,0.80
2018-02-07T11:17:32.983Z,0.70
2018-02-07T11:19:59.609Z,0.80
2018-02-07T11:22:26.200Z,0.70
2018-02-07T11:24:52.795Z,0.70
2018-02-07T11:27:19.434Z,0.70
2018-02-07T11:29:46.026Z,0.80
2018-02-07T11:32:12.604Z,0.70
2018-02-07T11:34:39.220Z,0.60
2018-02-07T11:37:05.822Z,0.60
2018-02-07T11:39:33.181Z,0.80
2018-02-07T11:42:00.546Z,0.80
2018-02-07T11:44:27.135Z,0.80
2018-02-07T11:46:53.698Z,0.80
2018-02-07T11:49:20.290Z,0.80
2018-02-07T11:51:46.913Z,0.80
2018-02-07T11:54:13.516Z,0.80
2018-02-07T11:56:40.097Z,0.70
2018-02-07T11:59:06.689Z,0.80
2018-02-07T12:01:33.326Z,0.90
2018-02-07T12:03:59.894Z,0.80
2018-02-07T12:06:26.495Z,0.80
2018-02-07T12:08:53.061Z,0.80
2018-02-07T12:11:19.652Z,0.80
2018-02-07T12:13:46.211Z,0.80
2018-02-07T12:16:12.833Z,1.00
2018-02-07T12:18:39.501Z,1.00
2018-02-07T12:21:06.993Z,1.00
2018-02-07T12:23:33.567Z,1.00
2018-02-07T12:26:00.917Z,0.80
2018-02-07T12:28:27.550Z,0.70
2018-02-07T12:30:54.184Z,0.90
2018-02-07T12:33:20.794Z,0.90
2018-02-07T12:35:47.457Z,0.90
2018-02-07T12:38:14.119Z,0.90
2018-02-07T12:40:40.735Z,1.00
2018-02-07T12:43:08.118Z,1.00
2018-02-07T12:45:35.484Z,1.00
2018-02-07T12:48:02.086Z,1.00
2018-02-07T12:50:28.721Z,1.10
2018-02-07T12:52:56.714Z,1.10
2018-02-07T12:55:23.393Z,1.10
2018-02-07T12:57:50.008Z,1.20
2018-02-07T13:00:16.695Z,1.20
2018-02-07T13:02:45.075Z,1.20
2018-02-07T13:05:11.680Z,1.20
2018-02-07T13:07:38.390Z,1.30
2018-02-07T13:10:05.761Z,1.30
2018-02-07T13:12:33.322Z,1.30
2018-02-07T13:14:59.890Z,1.30
2018-02-07T13:17:26.480Z,1.30
2018-02-07T13:19:53.909Z,1.20
2018-02-07T13:22:20.521Z,1.30
2018-02-07T13:24:47.154Z,1.30
2018-02-07T13:27:13.735Z,1.20
2018-02-07T13:29:41.466Z,1.30
2018-02-07T13:32:08.102Z,1.30
2018-02-07T13:34:34.687Z,1.30
2018-02-07T13:37:01.309Z,1.30
2018-02-07T13:39:28.647Z,1.40
2018-02-07T13:41:55.370Z,1.20
2018-02-07T13:44:21.970Z,1.40
2018-02-07T13:46:48.607Z,1.30
2018-02-07T13:49:15.213Z,1.30
2018-02-07T13:51:41.863Z,1.30
2018-02-07T13:54:08.451Z,1.40
2018-02-07T13:56:35.911Z,1.30
2018-02-07T13:59:02.477Z,1.30
2018-02-07T14:01:29.059Z,1.20
2018-02-07T14:03:55.676Z,1.10
2018-02-07T14:06:22.390Z,1.10
2018-02-07T14:08:49.727Z,1.20
2018-02-07T14:11:16.314Z,1.20
2018-02-07T14:13:42.979Z,1.30
2018-02-07T14:16:09.571Z,1.30
2018-02-07T14:18:36.197Z,1.40
2018-02-07T14:21:02.906Z,1.30
2018-02-07T14:23:30.044Z,1.10
2018-02-07T14:25:56.664Z,1.10
2018-02-07T14:28:23.914Z,0.90
2018-02-07T14:30:50.535Z,1.10
2018-02-07T14:33:17.111Z,1.00
2018-02-07T14:35:43.702Z,1.10
2018-02-07T14:38:10.438Z,1.20
2018-02-07T14:40:37.070Z,1.20
2018-02-07T14:43:03.658Z,1.20
2018-02-07T14:45:31.035Z,1.00
2018-02-07T14:47:57.626Z,0.90
2018-02-07T14:50:24.246Z,0.90
2018-02-07T14:52:50.851Z,0.90
2018-02-07T14:55:17.432Z,0.70
2018-02-07T14:57:44.051Z,0.80
2018-02-07T15:00:10.672Z,0.70
2018-02-07T15:02:37.228Z,0.80
2018-02-07T15:05:03.971Z,0.80
2018-02-07T15:07:31.328Z,0.70
2018-02-07T15:09:57.931Z,0.70
2018-02-07T15:12:24.502Z,0.80
2018-02-07T15:14:51.103Z,0.80
2018-02-07T15:17:18.422Z,0.70
2018-02-07T15:19:46.067Z,0.70
2018-02-07T15:22:12.656Z,0.70
2018-02-07T15:24:39.369Z,0.70
2018-02-07T15:27:05.960Z,0.70
2018-02-07T15:29:33.270Z,0.80
2018-02-07T15:31:59.900Z,0.80
2018-02-07T15:34:26.522Z,0.80
2018-02-07T15:36:53.150Z,0.80
2018-02-07T15:39:19.764Z,0.90
2018-02-07T15:41:46.356Z,0.70
2018-02-07T15:44:13.674Z,0.60
2018-02-07T15:46:40.297Z,0.70
2018-02-07T15:49:06.885Z,0.70
2018-02-07T15:51:33.495Z,0.70
2018-02-07T15:54:00.072Z,0.70
2018-02-07T15:56:26.714Z,0.70
2018-02-07T15:58:53.329Z,0.70
2018-02-07T16:01:19.982Z,0.70
2018-02-07T16:03:46.555Z,0.80
2018-02-07T16:06:14.151Z,0.70
2018-02-07T16:08:40.778Z,0.70
2018-02-07T16:11:07.395Z,0.60
2018-02-07T16:13:33.964Z,0.50
2018-02-07T16:16:00.681Z,0.50
2018-02-07T16:18:27.305Z,0.50
2018-02-07T16:20:53.927Z,0.60
2018-02-07T16:23:20.640Z,0.40
2018-02-07T16:25:47.552Z,0.50
2018-02-07T16:28:14.881Z,0.50
2018-02-07T16:30:41.462Z,0.40
2018-02-07T16:33:08.092Z,0.50
2018-02-07T16:35:34.668Z,0.50
2018-02-07T16:38:01.306Z,0.50
2018-02-07T16:40:29.511Z,0.40
2018-02-07T16:42:56.158Z,0.40
2018-02-07T16:45:22.779Z,0.40
2018-02-07T16:47:49.402Z,0.50
2018-02-07T16:50:16.026Z,0.50
2018-02-07T16:52:42.669Z,0.40
2018-02-07T16:55:09.322Z,0.40
2018-02-07T16:57:35.971Z,0.40
2018-02-07T17:00:02.676Z,0.40
2018-02-07T17:02:29.297Z,0.40
2018-02-07T17:04:56.705Z,0.40
2018-02-07T17:07:23.324Z,0.40
2018-02-07T17:09:49.983Z,0.50
2018-02-07T17:12:16.640Z,0.40
2018-02-07T17:14:43.237Z,0.40
2018-02-07T17:17:09.877Z,0.40
2018-02-07T17:19:37.378Z,0.40
2018-02-07T17:22:03.978Z,0.50
2018-02-07T17:24:30.754Z,0.50
2018-02-07T17:26:57.352Z,0.40
2018-02-07T17:29:23.952Z,0.40
2018-02-07T17:31:50.630Z,0.40
2018-02-07T17:34:17.247Z,0.40
2018-02-07T17:36:43.962Z,0.40
2018-02-07T17:39:10.625Z,0.40
2018-02-07T17:41:37.234Z,0.30
2018-02-07T17:44:04.730Z,0.30
2018-02-07T17:46:31.378Z,0.30
2018-02-07T17:48:57.998Z,0.30
2018-02-07T17:51:25.325Z,0.40
2018-02-07T17:53:52.702Z,0.40
2018-02-07T17:56:20.052Z,0.30
2018-02-07T17:58:47.395Z,0.20
2018-02-07T18:01:14.762Z,0.20
2018-02-07T18:03:42.118Z,0.20
2018-02-07T18:06:09.499Z,0.20
2018-02-07T18:08:36.123Z,0.30
2018-02-07T18:11:02.754Z,0.20
2018-02-07T18:13:29.374Z,0.00
2018-02-07T18:15:56.712Z,0.00
2018-02-07T18:18:23.336Z,0.00
2018-02-07T18:20:49.942Z,0.10
2018-02-07T18:23:16.591Z,0.00
2018-02-07T18:25:43.287Z,0.00
2018-02-07T18:28:10.727Z,0.00
2018-02-07T18:30:37.349Z,0.00
2018-02-07T18:33:05.111Z,0.00
2018-02-07T18:35:32.586Z,0.00
2018-02-07T18:38:00.008Z,0.00
2018-02-07T18:40:26.721Z,-0.10
2018-02-07T18:42:53.400Z,-0.10
2018-02-07T18:45:20.043Z,-0.10
2018-02-07T18:47:46.652Z,-0.20
2018-02-07T18:50:13.287Z,-0.10
2018-02-07T18:52:39.922Z,-0.10
2018-02-07T18:55:06.555Z,-0.10
2018-02-07T18:57:33.180Z,-0.20
2018-02-07T18:59:59.795Z,-0.30
2018-02-07T19:02:27.130Z,-0.30
2018-02-07T19:04:53.801Z,-0.30
2018-02-07T19:07:20.410Z,-0.20
2018-02-07T19:09:47.055Z,-0.30
2018-02-07T19:12:14.486Z,-0.20
2018-02-07T19:14:41.142Z,-0.10
2018-02-07T19:17:09.458Z,-0.30
2018-02-07T19:19:36.348Z,-0.40
2018-02-07T19:22:03.196Z,-0.30
2018-02-07T19:24:30.123Z,-0.30
2018-02-07T19:26:57.484Z,-0.40
2018-02-07T19:29:24.073Z,-0.40
2018-02-07T19:31:50.730Z,-0.50
2018-02-07T19:34:17.365Z,-0.50
2018-02-07T19:36:43.962Z,-0.60
2018-02-07T19:39:11.332Z,-0.50
2018-02-07T19:41:38.005Z,-0.50
2018-02-07T19:44:04.642Z,-0.60
2018-02-07T19:46:31.280Z,-0.50
2018-02-07T19:48:57.907Z,-0.40
2018-02-07T19:51:24.515Z,-0.50
2018-02-07T19:53:51.157Z,-0.50
2018-02-07T19:56:17.800Z,-0.60
2018-02-07T19:58:44.892Z,-0.50
2018-02-07T20:01:11.487Z,-0.50
2018-02-07T20:03:38.074Z,-0.50
2018-02-07T20:06:04.744Z,-0.60
2018-02-07T20:08:32.382Z,-0.60
2018-02-07T20:10:58.984Z,-0.50
2018-02-07T20:13:25.631Z,-0.60
2018-02-07T20:15:52.978Z,-0.60
2018-02-07T20:18:19.651Z,-0.70
2018-02-07T20:20:46.987Z,-0.60
2018-02-07T20:23:13.756Z,-0.60
2018-02-07T20:25:40.394Z,-0.70
2018-02-07T20:28:07.030Z,-0.70
2018-02-07T20:30:33.651Z,-0.70
2018-02-07T20:33:00.239Z,-0.70
2018-02-07T20:35:26.855Z,-0.70
2018-02-07T20:37:53.464Z,-0.70
2018-02-07T20:40:20.083Z,-0.80
2018-02-07T20:42:46.685Z,-0.80
2018-02-07T20:45:13.333Z,-0.90
2018-02-07T20:47:39.982Z,-0.90
2018-02-07T20:50:06.578Z,-0.90
2018-02-07T20:52:33.259Z,-0.90
2018-02-07T20:54:59.957Z,-0.80
2018-02-07T20:57:27.311Z,-0.90
2018-02-07T20:59:54.687Z,-1.00
2018-02-07T21:02:21.345Z,-1.00
2018-02-07T21:04:48.086Z,-1.00
2018-02-07T21:07:14.716Z,-1.00
2018-02-07T21:09:41.498Z,-1.00
2018-02-07T21:12:08.892Z,-1.00
2018-02-07T21:14:35.500Z,-1.00
2018-02-07T21:17:02.123Z,-0.90
2018-02-07T21:19:28.694Z,-0.90
2018-02-07T21:21:56.046Z,-0.90
2018-02-07T21:24:22.848Z,-0.90
2018-02-07T21:26:50.259Z,-0.70
2018-02-07T21:29:16.839Z,-0.70
2018-02-07T21:31:43.426Z,-0.80
2018-02-07T21:34:10.058Z,-0.80
2018-02-07T21:36:36.802Z,-0.80
2018-02-07T21:39:03.549Z,-0.80
2018-02-07T21:41:30.161Z,-0.80
2018-02-07T21:43:56.845Z,-0.80
2018-02-07T21:46:23.476Z,-0.80
2018-02-07T21:48:50.079Z,-0.70
2018-02-07T21:51:17.410Z,-0.80
2018-02-07T21:53:44.022Z,-0.80
2018-02-07T21:56:10.638Z,-0.80
2018-02-07T21:58:37.246Z,-0.80
2018-02-07T22:01:05.181Z,-0.80
2018-02-07T22:03:31.760Z,-0.90
2018-02-07T22:05:58.412Z,-0.90
2018-02-07T22:08:25.023Z,-0.90
2018-02-07T22:10:52.380Z,-0.90
2018-02-07T22:13:20.088Z,-0.90
2018-02-07T22:15:46.687Z,-0.90
2018-02-07T22:18:13.258Z,-0.80
2018-02-07T22:20:39.854Z,-0.80
2018-02-07T22:23:06.486Z,-0.80
2018-02-07T22:25:33.793Z,-0.80
2018-02-07T22:28:00.422Z,-0.80
2018-02-07T22:30:27.033Z,-0.80
2018-02-07T22:32:53.594Z,-0.90
2018-02-07T22:35:20.170Z,-1.00
2018-02-07T22:37:46.750Z,-0.90
2018-02-07T22:40:13.348Z,-0.80
2018-02-07T22:42:39.900Z,-0.90
2018-02-07T22:45:07.265Z,-0.90
2018-02-07T22:47:33.830Z,-0.90
2018-02-07T22:50:00.422Z,-0.90
2018-02-07T22:52:27.745Z,-0.80
2018-02-07T22:54:54.330Z,-0.80
2018-02-07T22:57:20.890Z,-0.80
2018-02-07T22:59:47.465Z,-0.80
2018-02-07T23:02:14.034Z,-0.80
2018-02-07T23:04:40.761Z,-0.90
2018-02-07T23:07:08.103Z,-0.90
2018-02-07T23:09:34.717Z,-0.90
2018-02-07T23:12:01.315Z,-0.90
2018-02-07T23:14:27.895Z,-0.80
2018-02-07T23:16:54.490Z,-0.90
2018-02-07T23:19:21.069Z,-0.80
2018-02-07T23:21:48.411Z,-0.90
2018-02-07T23:24:15.026Z,-0.90
2018-02-07T23:26:41.611Z,-1.00
2018-02-07T23:29:08.223Z,-1.00
2018-02-07T23:31:34.836Z,-1.00
2018-02-07T23:34:01.424Z,-1.00
2018-02-07T23:36:28.770Z,-0.90
2018-02-07T23:38:55.337Z,-0.90
2018-02-07T23:41:22.667Z,-0.90
2018-02-07T23:43:49.253Z,-0.90
2018-02-07T23:46:15.854Z,-0.90
2018-02-07T23:48:42.475Z,-1.00
2018-02-07T23:51:09.799Z,-1.00
2018-02-07T23:53:36.433Z,-1.00
2018-02-07T23:56:03.010Z,-1.00
2018-02-07T23:58:30.312Z,-1.10
